Time;durP1;ratioP1;P1;durP2;ratioP2;P2;SDS_P1;SDS_P2;PMS_P1;PMS_P2;Temp;Humidity;BMP_temperature;BMP_pressure;BME280_temperature;BME280_humidity;BME280_pressure;Samples;Min_cycle;Max_cycle;Signal;HPM_P1;HPM_P2
2022/03/31 00:00:13;;;;;;;40.73;25.57;;;;;;;5.69;100.00;93818.34;6106042;23;20650;-81
2022/03/31 00:02:39;;;;;;;38.37;25.83;;;;;;;5.66;100.00;93821.25;6101204;23;20152;-79
2022/03/31 00:05:04;;;;;;;38.43;25.00;;;;;;;5.80;100.00;93818.00;6101419;23;20202;-80
2022/03/31 00:07:30;;;;;;;42.13;25.00;;;;;;;5.81;100.00;93809.31;6127891;23;20152;-81
2022/03/31 00:09:55;;;;;;;39.30;25.23;;;;;;;5.75;100.00;93807.41;6077706;23;20155;-80
2022/03/31 00:12:21;;;;;;;39.90;26.20;;;;;;;5.74;100.00;93807.53;6076789;23;20156;-80
2022/03/31 00:14:47;;;;;;;41.20;26.13;;;;;;;5.72;100.00;93801.75;6101877;23;20505;-79
2022/03/31 00:17:12;;;;;;;39.40;25.60;;;;;;;5.68;100.00;93790.97;6077310;23;20187;-80
2022/03/31 00:19:38;;;;;;;40.27;24.23;;;;;;;5.60;100.00;93790.97;6077530;23;20164;-80
2022/03/31 00:22:03;;;;;;;36.93;24.73;;;;;;;5.64;100.00;93784.53;6100809;23;20175;-80
2022/03/31 00:24:29;;;;;;;41.23;25.53;;;;;;;5.59;100.00;93791.94;6078120;23;20633;-80
2022/03/31 00:26:54;;;;;;;44.73;26.87;;;;;;;5.54;100.00;93784.69;6102078;23;20171;-80
2022/03/31 00:29:19;;;;;;;42.03;26.67;;;;;;;5.53;100.00;93800.28;6102249;23;20509;-80
2022/03/31 00:31:44;;;;;;;40.70;26.37;;;;;;;5.50;100.00;93787.75;6100641;23;20152;-81
2022/03/31 00:34:10;;;;;;;49.03;28.77;;;;;;;5.35;100.00;93780.63;6101046;23;20219;-79
2022/03/31 00:36:35;;;;;;;43.77;26.83;;;;;;;5.44;100.00;93783.22;6101697;23;20191;-80
2022/03/31 00:41:45;;;;;;;44.07;27.30;;;;;;;5.43;100.00;93773.91;6104489;23;20226;-80
2022/03/31 00:44:11;;;;;;;42.77;26.63;;;;;;;5.47;100.00;93775.97;6077376;23;20163;-80
2022/03/31 00:46:46;;;;;;;42.30;26.50;;;;;;;5.50;100.00;93769.72;6101632;23;20171;-80
2022/03/31 00:49:11;;;;;;;48.17;27.77;;;;;;;5.43;100.00;93761.03;6077467;23;20147;-80
2022/03/31 00:51:36;;;;;;;43.07;27.57;;;;;;;5.40;100.00;93765.53;6076415;23;20587;-79
2022/03/31 00:54:02;;;;;;;43.47;28.27;;;;;;;5.44;100.00;93767.78;6077283;23;20161;-80
2022/03/31 00:56:27;;;;;;;41.83;26.57;;;;;;;5.43;100.00;93766.16;6101110;23;20189;-80
2022/03/31 00:58:53;;;;;;;46.50;28.60;;;;;;;5.40;100.00;93773.25;6101827;23;20209;-79
2022/03/31 01:01:19;;;;;;;47.33;28.83;;;;;;;5.50;100.00;93773.09;6100615;23;20625;-80
2022/03/31 01:03:44;;;;;;;48.00;30.17;;;;;;;5.42;100.00;93773.09;6101581;23;20160;-80
2022/03/31 01:06:09;;;;;;;48.47;30.17;;;;;;;5.46;100.00;93774.38;6101951;23;20175;-80
2022/03/31 01:08:35;;;;;;;48.03;29.40;;;;;;;5.54;100.00;93768.44;6077270;23;20168;-80
2022/03/31 01:11:00;;;;;;;51.23;30.27;;;;;;;5.53;100.00;93771.97;6101522;23;20159;-80
2022/03/31 01:13:26;;;;;;;50.60;29.40;;;;;;;5.55;100.00;93764.88;6100976;23;20179;-80
2022/03/31 01:15:52;;;;;;;48.03;29.57;;;;;;;5.52;100.00;93755.72;6101635;23;20175;-80
2022/03/31 01:18:17;;;;;;;43.40;27.07;;;;;;;5.59;100.00;93755.88;6077817;23;20244;-80
2022/03/31 01:20:42;;;;;;;48.57;29.47;;;;;;;5.68;100.00;93752.34;6101342;23;20169;-81
2022/03/31 01:23:11;;;;;;;46.37;29.77;;;;;;;5.73;100.00;93762.16;6100850;23;20152;-81
2022/03/31 01:25:37;;;;;;;44.70;28.20;;;;;;;5.84;100.00;93749.75;6077110;23;20646;-81
2022/03/31 01:28:02;;;;;;;40.97;26.90;;;;;;;5.80;100.00;93752.81;6101411;23;20428;-80
2022/03/31 01:30:27;;;;;;;45.83;28.73;;;;;;;5.65;100.00;93745.75;6100932;23;20219;-80
2022/03/31 01:32:53;;;;;;;42.67;28.07;;;;;;;5.59;100.00;93748.16;6076878;23;20510;-81
2022/03/31 01:35:18;;;;;;;44.87;27.97;;;;;;;5.50;100.00;93738.84;6101041;23;20645;-80
2022/03/31 01:37:44;;;;;;;43.50;28.77;;;;;;;5.57;100.00;93737.22;6077287;23;20184;-78
2022/03/31 01:40:11;;;;;;;49.83;30.30;;;;;;;5.61;100.00;93738.50;6075701;23;20218;-80
2022/03/31 01:42:37;;;;;;;44.13;26.93;;;;;;;5.69;100.00;93736.72;6100480;23;20152;-79
2022/03/31 01:45:04;;;;;;;43.37;28.60;;;;;;;5.51;100.00;93733.50;6076668;23;20259;-80
2022/03/31 01:47:29;;;;;;;47.40;28.90;;;;;;;5.70;100.00;93727.22;6077608;23;20187;-79
2022/03/31 01:49:55;;;;;;;42.63;27.80;;;;;;;5.79;100.00;93725.44;6101512;23;20156;-80
2022/03/31 01:52:22;;;;;;;44.30;27.83;;;;;;;5.78;100.00;93723.84;6101525;23;20156;-79
2022/03/31 01:54:48;;;;;;;46.00;29.43;;;;;;;5.81;100.00;93724.31;6128742;23;20163;-81
2022/03/31 01:57:13;;;;;;;47.17;28.70;;;;;;;5.74;100.00;93718.19;6078670;23;20184;-80
2022/03/31 01:59:41;;;;;;;45.40;27.37;;;;;;;5.67;100.00;93710.34;6103664;23;20156;-80
2022/03/31 02:02:07;;;;;;;44.67;28.30;;;;;;;5.63;100.00;93709.03;6102825;23;20646;-80
2022/03/31 02:04:32;;;;;;;48.03;29.73;;;;;;;5.57;100.00;93703.75;6103507;23;20167;-80
2022/03/31 02:06:57;;;;;;;45.40;29.03;;;;;;;5.59;100.00;93704.38;6078576;23;20176;-81
2022/03/31 02:09:23;;;;;;;58.50;32.83;;;;;;;5.51;100.00;93699.25;6079330;23;20174;-80
2022/03/31 02:11:48;;;;;;;55.03;32.27;;;;;;;5.51;100.00;93694.09;6126795;23;20250;-81
2022/03/31 02:14:14;;;;;;;56.40;32.23;;;;;;;5.68;100.00;93700.84;6103033;23;20476;-80
2022/03/31 02:16:39;;;;;;;58.07;32.00;;;;;;;5.68;100.00;93691.34;6102387;23;20193;-81
2022/03/31 02:19:04;;;;;;;50.17;31.30;;;;;;;5.83;100.00;93688.91;6102844;23;20161;-81
2022/03/31 02:21:30;;;;;;;48.80;30.53;;;;;;;5.87;100.00;93687.59;6101713;23;20164;-81
2022/03/31 02:23:55;;;;;;;52.40;31.83;;;;;;;5.88;100.00;93678.09;6102250;23;20506;-81
2022/03/31 02:26:20;;;;;;;49.30;28.27;;;;;;;5.73;100.00;93683.13;6102624;23;20168;-80
2022/03/31 02:28:46;;;;;;;46.80;29.03;;;;;;;5.72;100.00;93684.09;6102919;23;20159;-80
2022/03/31 02:31:11;;;;;;;46.73;27.60;;;;;;;5.79;100.00;93677.31;6101837;23;20156;-79
2022/03/31 02:33:38;;;;;;;48.23;28.83;;;;;;;5.74;100.00;93676.19;6102623;23;20160;-81
2022/03/31 02:36:04;;;;;;;43.70;26.40;;;;;;;5.77;100.00;93684.41;6078744;23;20712;-80
2022/03/31 02:38:30;;;;;;;47.53;27.87;;;;;;;5.73;100.00;93675.38;6102318;23;20624;-81
2022/03/31 02:40:55;;;;;;;44.83;28.90;;;;;;;5.73;100.00;93679.72;6076582;23;20203;-81
2022/03/31 02:43:20;;;;;;;45.97;27.37;;;;;;;5.74;100.00;93671.03;6101511;23;20152;-80
2022/03/31 02:45:46;;;;;;;46.80;29.87;;;;;;;5.70;100.00;93665.41;6102017;23;20179;-80
2022/03/31 02:48:11;;;;;;;44.63;28.73;;;;;;;5.68;100.00;93660.44;6102610;23;20148;-81
2022/03/31 02:50:36;;;;;;;43.97;27.00;;;;;;;5.75;100.00;93663.16;6102301;23;20665;-79
2022/03/31 02:55:45;;;;;;;42.43;27.40;;;;;;;5.52;100.00;93657.09;6105558;23;20191;-79
2022/03/31 02:58:11;;;;;;;45.87;27.40;;;;;;;5.50;100.00;93653.88;6102031;23;20148;-79
2022/03/31 03:00:37;;;;;;;44.07;26.20;;;;;;;5.51;100.00;93650.31;6077223;23;20656;-81
2022/03/31 03:03:03;;;;;;;40.13;26.87;;;;;;;5.44;100.00;93654.50;6076093;23;20160;-80
2022/03/31 03:05:29;;;;;;;39.80;26.70;;;;;;;5.49;100.00;93637.63;6101928;23;20178;-81
2022/03/31 03:07:55;;;;;;;43.83;27.57;;;;;;;5.35;100.00;93639.06;6101454;23;20191;-80
2022/03/31 03:10:20;;;;;;;45.17;28.53;;;;;;;5.33;100.00;93643.59;6101656;23;20162;-80
2022/03/31 03:12:46;;;;;;;39.87;26.90;;;;;;;5.41;100.00;93637.63;6101200;23;20167;-80
2022/03/31 03:15:11;;;;;;;43.67;26.37;;;;;;;5.48;100.00;93640.34;6126915;23;20178;-81
2022/03/31 03:17:42;;;;;;;46.10;27.53;;;;;;;5.42;100.00;93636.66;6146434;23;20186;-80
2022/03/31 03:20:13;;;;;;;42.77;27.10;;;;;;;5.35;100.00;93638.28;6123154;23;20155;-79
2022/03/31 03:22:41;;;;;;;59.37;29.70;;;;;;;5.27;100.00;93641.66;6119253;23;20495;-80
2022/03/31 03:25:07;;;;;;;42.57;27.77;;;;;;;5.37;100.00;93642.28;6081345;23;20546;-80
2022/03/31 03:27:32;;;;;;;40.90;25.47;;;;;;;5.34;100.00;93640.03;6080510;23;20165;-80
2022/03/31 03:29:58;;;;;;;40.57;26.30;;;;;;;5.22;100.00;93641.34;6130111;23;20167;-80
2022/03/31 03:32:23;;;;;;;39.23;24.97;;;;;;;5.30;100.00;93633.63;6079637;23;20166;-80
2022/03/31 03:34:49;;;;;;;41.70;24.97;;;;;;;5.32;100.00;93636.84;6103998;23;20177;-80
2022/03/31 03:37:14;;;;;;;39.20;25.73;;;;;;;5.11;100.00;93633.94;6080160;23;20184;-81
2022/03/31 03:39:39;;;;;;;35.20;24.10;;;;;;;5.11;100.00;93633.94;6077837;23;20617;-81
2022/03/31 03:42:05;;;;;;;36.03;24.10;;;;;;;4.96;100.00;93631.22;6103061;23;20168;-79
2022/03/31 03:44:30;;;;;;;36.83;24.73;;;;;;;5.10;100.00;93634.91;6129320;23;20160;-80
2022/03/31 03:46:56;;;;;;;34.13;24.00;;;;;;;5.10;100.00;93634.91;6103064;23;20183;-80
2022/03/31 03:49:21;;;;;;;36.10;23.10;;;;;;;5.12;100.00;93632.97;6102600;23;20183;-80
2022/03/31 03:51:47;;;;;;;33.73;23.83;;;;;;;5.06;100.00;93633.63;6102698;23;20140;-80
2022/03/31 03:54:12;;;;;;;30.17;21.50;;;;;;;4.99;100.00;93637.78;6078970;23;20160;-81
2022/03/31 03:56:38;;;;;;;31.63;22.53;;;;;;;5.01;100.00;93635.88;6081188;23;20257;-80
2022/03/31 03:59:04;;;;;;;28.37;21.60;;;;;;;4.93;100.00;93623.78;6106060;23;20540;-81
2022/03/31 04:01:30;;;;;;;32.93;22.70;;;;;;;4.93;100.00;93621.22;6080321;23;20163;-81
2022/03/31 04:03:55;;;;;;;33.97;22.07;;;;;;;4.93;100.00;93610.13;6105082;23;20160;-79
2022/03/31 04:06:20;;;;;;;28.87;21.83;;;;;;;4.87;100.00;93623.66;6105192;23;20218;-79
2022/03/31 04:08:46;;;;;;;30.70;22.97;;;;;;;4.74;100.00;93621.53;6080674;23;20164;-81
2022/03/31 04:11:11;;;;;;;28.57;21.87;;;;;;;4.69;100.00;93619.47;6079879;23;20169;-79
2022/03/31 04:13:36;;;;;;;30.63;21.13;;;;;;;4.69;100.00;93616.88;6102659;23;20607;-80
2022/03/31 04:16:03;;;;;;;33.97;23.00;;;;;;;4.65;100.00;93625.06;6080488;23;20191;-80
2022/03/31 04:18:30;;;;;;;31.97;23.37;;;;;;;4.67;100.00;93615.41;6105340;23;20647;-81
2022/03/31 04:20:55;;;;;;;30.70;22.60;;;;;;;4.59;100.00;93605.13;6080131;23;20168;-79
2022/03/31 04:23:21;;;;;;;32.90;24.30;;;;;;;4.57;100.00;93615.56;6137791;23;20180;-81
2022/03/31 04:25:47;;;;;;;35.00;24.30;;;;;;;4.58;100.00;93622.31;6108360;23;20184;-81
2022/03/31 04:28:13;;;;;;;35.20;23.27;;;;;;;4.47;100.00;93609.78;6098963;23;20173;-79
2022/03/31 04:30:38;;;;;;;33.53;22.90;;;;;;;4.49;100.00;93607.84;6075022;23;20742;-80
2022/03/31 04:33:03;;;;;;;33.43;24.03;;;;;;;4.59;100.00;93603.34;6099415;23;20151;-79
2022/03/31 04:35:29;;;;;;;34.83;23.90;;;;;;;4.47;100.00;93605.44;6099722;23;20553;-79
2022/03/31 04:37:54;;;;;;;34.73;23.43;;;;;;;4.45;100.00;93601.41;6075512;23;20219;-78
2022/03/31 04:40:20;;;;;;;44.23;23.27;;;;;;;4.37;100.00;93598.84;6102882;23;20489;-80
2022/03/31 04:42:46;;;;;;;53.43;24.53;;;;;;;4.24;100.00;93594.13;6125774;23;20157;-80
2022/03/31 04:45:11;;;;;;;38.20;25.77;;;;;;;4.31;100.00;93594.31;6077912;23;20184;-80
2022/03/31 04:47:37;;;;;;;41.60;25.43;;;;;;;4.14;100.00;93598.59;6128483;23;20152;-79
2022/03/31 04:50:03;;;;;;;39.23;25.47;;;;;;;4.26;100.00;93603.31;6077907;23;20159;-79
2022/03/31 04:52:28;;;;;;;69.23;29.53;;;;;;;4.13;100.00;93605.50;6102260;23;20155;-82
2022/03/31 04:54:53;;;;;;;38.97;25.80;;;;;;;4.15;100.00;93598.47;6129411;23;20185;-80
2022/03/31 04:57:20;;;;;;;56.20;31.17;;;;;;;4.03;100.00;93607.41;6105568;23;20179;-79
2022/03/31 04:59:45;;;;;;;47.30;25.60;;;;;;;4.00;100.00;93602.59;6076603;23;20167;-81
2022/03/31 05:02:11;;;;;;;57.83;23.63;;;;;;;3.92;100.00;93611.06;6124847;23;20160;-82
2022/03/31 05:04:36;;;;;;;46.70;26.43;;;;;;;3.80;100.00;93601.19;6075007;23;20151;-82
2022/03/31 05:07:02;;;;;;;54.57;30.10;;;;;;;3.78;100.00;93600.56;6100728;23;20229;-82
2022/03/31 05:09:27;;;;;;;40.93;28.37;;;;;;;3.85;100.00;93597.22;6099870;23;20745;-81
2022/03/31 05:11:53;;;;;;;62.90;24.40;;;;;;;3.73;100.00;93600.22;6129539;23;20144;-81
2022/03/31 05:14:18;;;;;;;31.10;22.77;;;;;;;3.77;100.00;93597.19;6105531;23;20618;-79
2022/03/31 05:16:43;;;;;;;38.77;25.43;;;;;;;3.79;100.00;93589.31;6104406;23;20244;-80
2022/03/31 05:19:09;;;;;;;39.07;25.77;;;;;;;3.75;100.00;93600.88;6105156;23;20155;-79
2022/03/31 05:21:35;;;;;;;38.40;24.73;;;;;;;3.78;100.00;93608.25;6127785;23;20148;-80
2022/03/31 05:24:01;;;;;;;36.20;25.03;;;;;;;3.67;100.00;93607.56;6104320;23;20155;-77
2022/03/31 05:26:26;;;;;;;35.53;24.10;;;;;;;3.72;100.00;93607.13;6103818;23;20175;-79
2022/03/31 05:28:51;;;;;;;54.43;25.07;;;;;;;3.65;100.00;93606.94;6080317;23;20170;-80
2022/03/31 05:31:17;;;;;;;39.43;24.37;;;;;;;3.68;100.00;93605.81;6079161;23;20152;-78
2022/03/31 05:33:42;;;;;;;33.83;23.40;;;;;;;3.73;100.00;93602.78;6105918;23;20664;-80
2022/03/31 05:36:07;;;;;;;61.27;25.93;;;;;;;3.69;100.00;93605.66;6081594;23;20197;-80
2022/03/31 05:38:33;;;;;;;96.03;25.90;;;;;;;3.43;100.00;93602.31;6080064;23;20164;-81
2022/03/31 05:40:58;;;;;;;39.60;25.63;;;;;;;3.63;100.00;93608.84;6105028;23;20165;-81
2022/03/31 05:43:23;;;;;;;37.17;24.27;;;;;;;3.66;100.00;93603.41;6105799;23;20172;-81
2022/03/31 05:45:50;;;;;;;39.30;24.23;;;;;;;3.69;100.00;93603.09;6080899;23;20415;-81
2022/03/31 05:48:15;;;;;;;35.53;24.13;;;;;;;3.68;100.00;93598.09;6104069;23;20167;-80
2022/03/31 05:50:41;;;;;;;36.23;24.40;;;;;;;3.69;100.00;93597.94;6081024;23;20164;-80
2022/03/31 05:53:06;;;;;;;46.80;24.17;;;;;;;3.68;100.00;93604.03;6130431;23;20157;-81
2022/03/31 05:55:32;;;;;;;35.30;23.20;;;;;;;3.70;100.00;93596.97;6103146;23;20207;-79
2022/03/31 05:57:58;;;;;;;35.93;24.57;;;;;;;3.78;100.00;93600.56;6077447;23;20187;-78
2022/03/31 06:00:23;;;;;;;47.37;25.97;;;;;;;3.72;100.00;93594.28;6101883;23;20166;-81
2022/03/31 06:02:50;;;;;;;53.90;26.20;;;;;;;3.63;100.00;93596.00;6078952;23;20163;-79
2022/03/31 06:05:16;;;;;;;40.97;26.40;;;;;;;3.65;100.00;93593.28;6104706;23;20180;-78
2022/03/31 06:07:42;;;;;;;52.43;27.50;;;;;;;3.59;100.00;93586.19;6103079;23;20152;-79
2022/03/31 06:10:08;;;;;;;64.97;28.57;;;;;;;3.71;100.00;93597.81;6103456;23;20183;-80
2022/03/31 06:12:34;;;;;;;42.87;26.63;;;;;;;3.82;100.00;93604.44;6076004;23;20192;-79
2022/03/31 06:15:00;;;;;;;44.20;26.80;;;;;;;3.69;100.00;93597.13;6077012;23;20227;-79
2022/03/31 06:17:25;;;;;;;54.33;26.70;;;;;;;3.72;100.00;93603.75;6079104;23;20188;-81
2022/03/31 06:19:50;;;;;;;58.53;28.03;;;;;;;3.64;100.00;93596.81;6130385;23;20204;-79
2022/03/31 06:22:16;;;;;;;51.43;28.33;;;;;;;3.62;100.00;93593.56;6127360;23;20157;-78
2022/03/31 06:24:41;;;;;;;47.23;29.27;;;;;;;3.63;100.00;93597.78;6102473;23;20168;-79
2022/03/31 06:27:08;;;;;;;49.33;29.17;;;;;;;3.69;100.00;93609.97;6101608;23;20507;-78
2022/03/31 06:29:34;;;;;;;67.07;27.73;;;;;;;3.73;100.00;93605.38;6077946;23;20172;-80
2022/03/31 06:31:59;;;;;;;57.27;27.67;;;;;;;3.66;100.00;93600.03;6077485;23;20152;-80
2022/03/31 06:34:25;;;;;;;58.77;29.27;;;;;;;3.82;100.00;93594.16;6078151;23;20189;-80
2022/03/31 06:36:50;;;;;;;46.63;27.47;;;;;;;3.85;100.00;93599.78;6077058;23;20188;-79
2022/03/31 06:39:16;;;;;;;63.17;32.23;;;;;;;3.87;100.00;93597.06;6077845;23;20251;-81
2022/03/31 06:41:44;;;;;;;52.80;29.27;;;;;;;3.96;100.00;93602.06;6101518;23;20145;-80
2022/03/31 06:44:12;;;;;;;60.47;30.60;;;;;;;3.83;100.00;93591.44;6103120;23;20163;-79
2022/03/31 06:46:38;;;;;;;158.93;32.83;;;;;;;3.71;100.00;93608.09;6078978;23;20187;-80
2022/03/31 06:49:03;;;;;;;57.90;30.20;;;;;;;3.74;100.00;93605.19;6078103;23;20243;-80
2022/03/31 06:51:29;;;;;;;62.67;29.40;;;;;;;3.89;100.00;93605.44;6077091;23;20259;-79
2022/03/31 06:53:57;;;;;;;51.67;28.17;;;;;;;3.98;100.00;93604.50;6128508;23;20156;-79
2022/03/31 06:56:23;;;;;;;56.00;30.30;;;;;;;4.01;100.00;93593.09;6078939;23;20701;-78
2022/03/31 06:58:48;;;;;;;69.47;30.63;;;;;;;3.85;100.00;93601.56;6101821;23;20259;-79
2022/03/31 07:01:14;;;;;;;51.77;30.33;;;;;;;3.91;100.00;93588.91;6076764;23;20480;-81
2022/03/31 07:03:39;;;;;;;51.47;29.70;;;;;;;3.93;100.00;93596.44;6103110;23;20159;-81
2022/03/31 07:06:06;;;;;;;53.87;28.97;;;;;;;3.84;100.00;93598.19;6078411;23;20188;-80
2022/03/31 07:08:33;;;;;;;51.93;28.93;;;;;;;3.97;100.00;93600.31;6078414;23;20145;-80
2022/03/31 07:10:59;;;;;;;47.73;28.47;;;;;;;4.01;100.00;93596.47;6076817;23;20169;-81
2022/03/31 07:13:24;;;;;;;46.60;28.23;;;;;;;4.05;100.00;93594.41;6076108;23;20162;-80
2022/03/31 07:15:50;;;;;;;49.30;28.33;;;;;;;4.09;100.00;93591.38;6099948;23;20183;-80
2022/03/31 07:18:15;;;;;;;43.30;26.90;;;;;;;4.15;100.00;93595.06;6078762;23;20166;-80
2022/03/31 07:20:40;;;;;;;46.33;28.33;;;;;;;4.18;100.00;93592.19;6077648;23;20167;-83
2022/03/31 07:23:06;;;;;;;42.97;27.53;;;;;;;4.24;100.00;93586.41;6101496;23;20642;-81
2022/03/31 07:25:31;;;;;;;45.70;26.03;;;;;;;4.17;100.00;93576.00;6102321;23;20179;-80
2022/03/31 07:27:57;;;;;;;45.87;25.93;;;;;;;4.06;99.23;93576.25;6101995;23;20156;-81
2022/03/31 07:30:23;;;;;;;39.03;25.83;;;;;;;4.05;100.00;93577.22;6078788;23;20255;-81
2022/03/31 07:32:57;;;;;;;40.83;27.27;;;;;;;4.21;100.00;93577.25;6099036;23;20154;-80
2022/03/31 07:35:25;;;;;;;41.77;25.47;;;;;;;4.17;100.00;93577.75;6075793;23;20634;-82
2022/03/31 07:37:52;;;;;;;43.60;27.27;;;;;;;4.23;100.00;93580.47;6100590;23;20637;-81
2022/03/31 07:40:18;;;;;;;42.93;26.87;;;;;;;4.25;100.00;93578.56;6100158;23;20157;-81
2022/03/31 07:42:44;;;;;;;44.43;28.80;;;;;;;4.24;100.00;93573.56;6099427;23;20162;-81
2022/03/31 07:45:11;;;;;;;43.17;27.73;;;;;;;4.30;100.00;93574.72;6100312;23;20180;-82
2022/03/31 07:47:37;;;;;;;48.10;27.40;;;;;;;4.51;99.78;93575.09;6101146;23;20152;-80
2022/03/31 07:50:02;;;;;;;45.17;29.07;;;;;;;4.47;100.00;93578.94;6077630;23;20151;-80
2022/03/31 07:52:27;;;;;;;45.40;29.23;;;;;;;4.41;99.46;93572.63;6100861;23;20250;-79
2022/03/31 07:54:53;;;;;;;43.77;28.63;;;;;;;4.35;99.95;93567.34;6101154;23;20194;-80
2022/03/31 07:57:19;;;;;;;48.37;29.03;;;;;;;4.43;99.38;93564.81;6077003;23;20190;-81
2022/03/31 07:59:44;;;;;;;46.63;28.87;;;;;;;4.60;100.00;93569.00;6077986;23;20161;-81
2022/03/31 08:02:09;;;;;;;42.13;27.30;;;;;;;4.66;98.78;93576.03;6127099;23;20208;-80
2022/03/31 08:04:35;;;;;;;55.47;32.73;;;;;;;4.75;98.42;93579.44;6099622;23;20494;-80
2022/03/31 08:07:00;;;;;;;44.60;28.97;;;;;;;4.81;98.74;93571.88;6099244;23;20161;-79
2022/03/31 08:09:26;;;;;;;47.77;28.93;;;;;;;4.85;98.55;93574.94;6076390;23;20166;-80
2022/03/31 08:11:51;;;;;;;60.53;35.57;;;;;;;4.73;98.68;93568.50;6099693;23;20148;-80
2022/03/31 08:14:19;;;;;;;41.83;27.33;;;;;;;4.85;98.38;93562.06;6078388;23;20472;-81
2022/03/31 08:16:48;;;;;;;45.33;27.63;;;;;;;4.82;98.45;93567.53;6078990;23;20186;-79
2022/03/31 08:19:15;;;;;;;40.20;26.03;;;;;;;4.89;98.93;93567.72;6103624;23;20594;-80
2022/03/31 08:21:42;;;;;;;39.00;24.60;;;;;;;4.77;98.48;93568.03;6100602;23;20185;-80
2022/03/31 08:24:08;;;;;;;33.43;22.30;;;;;;;4.93;97.21;93562.06;6077020;23;20284;-78
2022/03/31 08:26:33;;;;;;;32.33;23.20;;;;;;;5.05;96.94;93553.06;6075501;23;20177;-81
2022/03/31 08:28:58;;;;;;;33.13;23.23;;;;;;;5.08;96.42;93557.88;6076039;23;20218;-81
2022/03/31 08:31:25;;;;;;;31.33;23.10;;;;;;;5.25;96.79;93557.88;6074830;23;20190;-81
2022/03/31 08:33:50;;;;;;;30.47;21.80;;;;;;;5.33;97.03;93561.22;6075909;23;20645;-80
2022/03/31 08:36:15;;;;;;;30.47;21.67;;;;;;;5.50;95.60;93566.34;6099221;23;20186;-81
2022/03/31 08:38:41;;;;;;;30.93;22.17;;;;;;;5.54;95.50;93576.13;6076088;23;20164;-80
2022/03/31 08:41:06;;;;;;;30.83;22.40;;;;;;;5.68;95.48;93556.63;6075736;23;20164;-80
2022/03/31 08:43:32;;;;;;;33.37;23.30;;;;;;;5.58;94.74;93569.69;6101181;23;20488;-79
2022/03/31 08:45:57;;;;;;;32.63;22.90;;;;;;;5.76;94.50;93564.31;6105611;23;20189;-82
2022/03/31 08:48:25;;;;;;;29.37;21.03;;;;;;;5.83;93.49;93562.69;6105242;23;20212;-81
2022/03/31 08:50:50;;;;;;;27.80;20.47;;;;;;;5.75;93.15;93557.56;6104308;23;20152;-81
2022/03/31 08:53:16;;;;;;;26.87;20.97;;;;;;;5.76;93.45;93559.19;6103955;23;20261;-82
2022/03/31 08:55:41;;;;;;;30.33;20.63;;;;;;;5.95;93.32;93569.09;6081205;23;20526;-81
2022/03/31 08:58:06;;;;;;;28.17;20.10;;;;;;;5.92;92.15;93559.16;6105162;23;20187;-82
2022/03/31 09:00:32;;;;;;;26.30;18.57;;;;;;;6.06;92.14;93556.81;6105155;23;20163;-81
2022/03/31 09:03:00;;;;;;;25.63;19.93;;;;;;;6.05;92.05;93555.22;6077120;23;20170;-80
2022/03/31 09:05:27;;;;;;;27.60;21.03;;;;;;;6.21;91.80;93555.94;6103487;23;20180;-80
2022/03/31 09:08:00;;;;;;;29.10;21.80;;;;;;;6.22;91.52;93549.81;6103178;23;20147;-80
2022/03/31 09:10:27;;;;;;;24.23;18.83;;;;;;;6.11;89.96;93552.78;6100796;23;20660;-81
2022/03/31 09:12:52;;;;;;;27.47;20.03;;;;;;;6.16;90.76;93554.81;6100382;23;20160;-80
2022/03/31 09:15:18;;;;;;;25.83;19.93;;;;;;;6.28;90.88;93550.91;6101505;23;20231;-81
2022/03/31 09:17:43;;;;;;;27.50;20.20;;;;;;;6.36;89.89;93550.03;6103715;23;20195;-80
2022/03/31 09:20:08;;;;;;;26.50;20.77;;;;;;;6.31;90.01;93549.75;6080508;23;20261;-81
2022/03/31 09:22:45;;;;;;;31.53;21.83;;;;;;;6.35;90.88;93548.44;6128519;23;20479;-81
2022/03/31 09:25:11;;;;;;;29.97;21.13;;;;;;;6.26;90.82;93552.84;6077193;23;20808;-81
2022/03/31 09:27:36;;;;;;;26.30;20.57;;;;;;;6.25;90.35;93546.06;6101017;23;20152;-81
2022/03/31 09:30:06;;;;;;;31.07;22.00;;;;;;;6.11;91.16;93542.47;6100493;23;20512;-81
2022/03/31 09:32:31;;;;;;;30.80;23.03;;;;;;;5.77;92.71;93547.91;6099790;23;20160;-81
2022/03/31 09:35:04;;;;;;;33.93;22.37;;;;;;;5.89;92.75;93545.75;6075974;23;20186;-79
2022/03/31 09:37:31;;;;;;;28.90;21.30;;;;;;;5.87;92.68;93545.91;6102237;23;20510;-81
2022/03/31 09:39:56;;;;;;;30.73;23.00;;;;;;;6.01;93.24;93539.31;6078241;23;20180;-80
2022/03/31 09:42:21;;;;;;;30.53;21.80;;;;;;;5.86;92.18;93540.94;6099718;23;20611;-79
2022/03/31 09:44:56;;;;;;;30.70;22.10;;;;;;;6.02;92.75;93543.47;6075420;23;20160;-81
2022/03/31 09:47:21;;;;;;;29.60;21.97;;;;;;;5.74;93.12;93543.06;6102425;23;20139;-82
2022/03/31 09:49:52;;;;;;;31.47;22.57;;;;;;;6.03;92.20;93541.72;6080458;23;20505;-81
2022/03/31 09:52:19;;;;;;;31.40;22.57;;;;;;;6.05;91.03;93542.34;6103645;23;20219;-80
2022/03/31 09:54:46;;;;;;;35.90;22.93;;;;;;;5.88;91.83;93537.22;6127046;23;20160;-81
2022/03/31 09:57:12;;;;;;;35.07;24.10;;;;;;;6.18;91.35;93540.00;6076313;23;20187;-80
2022/03/31 09:59:38;;;;;;;32.63;22.97;;;;;;;6.34;91.43;93539.91;6097644;23;20152;-80
2022/03/31 10:02:04;;;;;;;33.33;22.27;;;;;;;6.37;90.92;93537.00;6123611;23;20168;-80
2022/03/31 10:04:31;;;;;;;36.87;24.07;;;;;;;6.20;92.19;93528.56;6098856;23;20701;-80
2022/03/31 10:06:57;;;;;;;34.20;23.13;;;;;;;6.86;90.02;93528.09;6074979;23;20172;-78
2022/03/31 10:09:22;;;;;;;35.60;24.53;;;;;;;7.07;89.22;93529.03;6073740;23;20171;-79
2022/03/31 10:12:07;;;;;;;35.77;23.40;;;;;;;7.10;87.44;93528.69;6099005;23;20611;-79
2022/03/31 10:14:46;;;;;;;37.53;23.73;;;;;;;6.87;87.31;93534.84;6074450;23;20179;-78
2022/03/31 10:17:12;;;;;;;34.60;22.03;;;;;;;6.90;88.25;93527.59;6053874;23;20709;-79
2022/03/31 10:19:41;;;;;;;31.87;22.17;;;;;;;6.70;88.03;93534.97;6098257;23;20168;-78
2022/03/31 10:25:05;;;;;;;35.07;23.93;;;;;;;6.74;88.41;93530.28;6104264;23;20186;-80
2022/03/31 10:27:34;;;;;;;34.77;23.97;;;;;;;7.03;87.37;93527.78;6102361;23;20152;-80
2022/03/31 10:30:20;;;;;;;35.30;22.70;;;;;;;6.90;88.22;93527.59;6102857;23;20168;-79
2022/03/31 10:32:51;;;;;;;34.13;22.33;;;;;;;6.89;88.49;93518.25;6101314;23;20627;-79
2022/03/31 10:35:26;;;;;;;32.87;22.40;;;;;;;7.11;88.54;93526.91;6102967;23;20251;-80
2022/03/31 10:37:52;;;;;;;34.87;24.03;;;;;;;6.94;88.79;93523.66;6080189;23;20180;-81
2022/03/31 10:40:35;;;;;;;36.87;23.47;;;;;;;6.87;88.75;93521.94;6103998;23;20231;-80
2022/03/31 10:43:01;;;;;;;35.47;23.40;;;;;;;6.63;89.95;93520.41;6081924;23;20607;-80
2022/03/31 10:45:38;;;;;;;39.67;25.57;;;;;;;6.34;91.80;93519.28;6083297;23;20192;-80
2022/03/31 10:48:21;;;;;;;37.57;24.13;;;;;;;6.26;90.99;93519.31;6082522;23;20158;-80
2022/03/31 10:50:59;;;;;;;37.13;24.67;;;;;;;6.44;91.09;93504.38;6081290;23;20259;-80
2022/03/31 10:53:29;;;;;;;35.10;24.40;;;;;;;6.70;91.38;93510.97;6080869;23;20238;-80
2022/03/31 10:55:55;;;;;;;41.87;26.17;;;;;;;6.55;91.75;93512.72;6104520;23;20190;-79
2022/03/31 10:58:25;;;;;;;34.77;23.77;;;;;;;6.66;90.33;93517.47;6104676;23;20263;-78
2022/03/31 11:00:52;;;;;;;38.23;25.10;;;;;;;6.47;90.19;93513.56;6103769;23;20160;-81
2022/03/31 11:03:18;;;;;;;35.30;22.97;;;;;;;6.47;90.83;93514.38;6077643;23;20210;-80
2022/03/31 11:05:43;;;;;;;35.33;23.83;;;;;;;6.11;93.51;93514.13;6102116;23;20199;-80
2022/03/31 11:08:09;;;;;;;38.50;24.97;;;;;;;6.21;93.40;93504.38;6077378;23;20163;-80
2022/03/31 11:10:49;;;;;;;37.80;25.17;;;;;;;6.38;92.65;93506.88;6101825;23;20170;-81
2022/03/31 11:13:16;;;;;;;34.27;23.27;;;;;;;6.32;93.62;93505.75;6100241;23;20152;-81
2022/03/31 11:15:42;;;;;;;36.70;24.80;;;;;;;6.56;91.96;93509.97;6077478;23;20619;-79
2022/03/31 11:18:08;;;;;;;35.93;23.00;;;;;;;6.48;92.53;93503.06;6078611;23;20214;-82
2022/03/31 11:20:33;;;;;;;33.90;23.60;;;;;;;6.66;91.63;93505.34;6078759;23;20247;-81
2022/03/31 11:23:06;;;;;;;32.87;23.97;;;;;;;6.64;91.68;93497.00;6077293;23;20284;-79